• Join FlightAware (Why Join?)
  • Login
  • US Flag 
12:19AM EDT


 

Airport Tracker/Info


-or-


 

Live Flight TrackerFlight Track Log ✈ VH-TZH ✈ 09-Jul-2013 ✈ YMDV - YBAS / ASP

Flight Track Log - Related Links

Times and Time Zones

All times are in EDT time to prevent confusion due to time zone crossing. See the VH-TZH flight status page for this flight to view local times or setup timezone preferences in your user account.

Time Position Orientation Groundspeed Altitude Reporting Facility
EDT Latitude Longitude Course Direction KTS MPH feet Rate Location/Type
11:06PM -26.1376 129.2060 360° North 1,800  Level Aus ATC (Calculated)
11:07PM -26.1376 129.2060 62° Northeast 1,800  Level Aus ATC (Calculated)
11:09PM -26.1086 129.2675 62° Northeast  Level FlightAware Approximate
11:10PM -26.0881 129.3109 62° Northeast  Level FlightAware Approximate
11:10PM -26.0671 129.3554 243° Southwest 1,800  Level Aus ATC (Calculated)
11:11PM -26.0676 129.3542 62° Northeast  Level FlightAware Approximate
11:12PM -26.0380 129.4168 62° Northeast  Level FlightAware Approximate
11:13PM -26.0175 129.4602 62° Northeast  Level FlightAware Approximate
11:13PM -25.9987 129.5000 62° Northeast 1,800  Level Aus ATC (Calculated)
11:15PM -25.9603 129.5808 62° Northeast  Level FlightAware Approximate
11:15PM -25.9655 129.5700 95° East 1,800  Level Aus ATC (Calculated)
11:15PM -25.9655 129.5700 62° Northeast 1,800  Level Aus ATC (Calculated)
11:17PM -25.9259 129.6532 62° Northeast  Level FlightAware Approximate
11:18PM -25.9029 129.7016 62° Northeast  Level FlightAware Approximate
11:19PM -25.8798 129.7500 62° Northeast  Level FlightAware Approximate
11:20PM -25.8567 129.7984 62° Northeast  Level FlightAware Approximate
11:21PM -25.8336 129.8468 62° Northeast  Level FlightAware Approximate
11:22PM -25.8105 129.8952 62° Northeast  Level FlightAware Approximate
11:23PM -25.7873 129.9436 62° Northeast  Level FlightAware Approximate
11:24PM -25.7642 129.9919 62° Northeast  Level FlightAware Approximate
11:25PM -25.7410 130.0402 62° Northeast  Level FlightAware Approximate
11:26PM -25.7178 130.0885 62° Northeast  Level FlightAware Approximate
11:27PM -25.6946 130.1368 62° Northeast  Level FlightAware Approximate
11:28PM -25.6714 130.1850 62° Northeast  Level FlightAware Approximate
11:29PM -25.6481 130.2333 62° Northeast  Level FlightAware Approximate
11:30PM -25.6249 130.2815 62° Northeast  Level FlightAware Approximate
11:31PM -25.6016 130.3297 62° Northeast  Level FlightAware Approximate
11:32PM -25.5783 130.3779 62° Northeast  Level FlightAware Approximate
11:33PM -25.5550 130.4261 62° Northeast  Level FlightAware Approximate
11:34PM -25.5317 130.4742 62° Northeast  Level FlightAware Approximate
11:35PM -25.5084 130.5223 62° Northeast  Level FlightAware Approximate
11:36PM -25.4850 130.5704 62° Northeast  Level FlightAware Approximate
11:37PM -25.4616 130.6185 62° Northeast  Level FlightAware Approximate
11:38PM -25.4382 130.6666 62° Northeast  Level FlightAware Approximate
11:39PM -25.4149 130.7146 62° Northeast  Level FlightAware Approximate
11:40PM -25.3914 130.7627 62° Northeast  Level FlightAware Approximate
11:41PM -25.3680 130.8107 62° Northeast  Level FlightAware Approximate
11:42PM -25.3446 130.8587 62° Northeast  Level FlightAware Approximate
11:43PM -25.3211 130.9066 62° Northeast  Level FlightAware Approximate
11:44PM -25.2976 130.9546 62° Northeast  Level FlightAware Approximate
11:44PM -25.3716 130.8033 62° Northeast 1,800  Level Aus ATC (Calculated)
11:45PM -25.3482 130.8513 62° Northeast  Level FlightAware Approximate
11:45PM -25.3477 130.8523 62° Northeast 1,800  Level Aus ATC (Calculated)
11:46PM -25.3247 130.8993 62° Northeast  Level FlightAware Approximate
11:47PM -25.3133 130.9227 62° Northeast  Level FlightAware Approximate
11:48PM -25.2898 130.9706 62° Northeast  Level FlightAware Approximate
11:49PM -25.2663 131.0185 62° Northeast  Level FlightAware Approximate
11:50PM -25.2428 131.0664 62° Northeast  Level FlightAware Approximate
11:51PM -25.2192 131.1143 62° Northeast  Level FlightAware Approximate
11:52PM -25.1957 131.1622 61° Northeast  Level FlightAware Approximate
11:53PM -25.1721 131.2101 61° Northeast  Level FlightAware Approximate
11:54PM -25.1486 131.2579 61° Northeast  Level FlightAware Approximate
11:55PM -25.1250 131.3057 61° Northeast  Level FlightAware Approximate
11:56PM -25.1014 131.3535 61° Northeast  Level FlightAware Approximate
11:57PM -25.0778 131.4013 61° Northeast  Level FlightAware Approximate
11:58PM -25.0541 131.4491 61° Northeast  Level FlightAware Approximate
11:59PM -25.0305 131.4968 61° Northeast  Level FlightAware Approximate
11:59PM -25.0638 131.4296 61° Northeast 1,800  Level Aus ATC (Calculated)
12:00AM -25.0402 131.4773 61° Northeast  Level FlightAware Approximate
12:01AM -25.0165 131.5251 61° Northeast  Level FlightAware Approximate
12:02AM -24.9928 131.5728 61° Northeast  Level FlightAware Approximate
12:03AM -24.9692 131.6205 61° Northeast  Level FlightAware Approximate
12:04AM -24.9454 131.6682 61° Northeast  Level FlightAware Approximate
12:05AM -24.9217 131.7158 61° Northeast  Level FlightAware Approximate
12:06AM -24.8980 131.7635 61° Northeast  Level FlightAware Approximate
12:07AM -24.8742 131.8111 61° Northeast  Level FlightAware Approximate
12:07AM -24.8703 131.8190 61° Northeast 1,800  Level Aus ATC (Calculated)
12:09AM -24.8232 131.9134 61° Northeast  Level FlightAware Approximate
12:10AM -24.7994 131.9609 61° Northeast  Level FlightAware Approximate
12:10AM -24.8048 131.9501 61° Northeast 1,800  Level Aus ATC (Calculated)
12:11AM -24.7740 132.0115 61° Northeast 1,800  Level Aus ATC (Calculated)
12:12AM -24.7442 132.0710 61° Northeast 1,800  Level Aus ATC (Calculated)
12:14AM -24.7034 132.1522 61° Northeast  Level FlightAware Approximate
12:15AM -24.6824 132.1939 61° Northeast  Level FlightAware Approximate
12:16AM -24.6615 132.2355 61° Northeast  Level FlightAware Approximate
12:17AM -24.6405 132.2771 61° Northeast  Level FlightAware Approximate
12:18AM -24.6196 132.3187 61° Northeast  Level FlightAware Approximate
12:18AM -24.5994 132.3587 24° Northeast 1,800  Level Aus ATC (Calculated)
12:18AM -24.5994 132.3587 61° Northeast 1,800  Level Aus ATC (Calculated)
12:20AM -24.5637 132.4294 61° Northeast  Level FlightAware Approximate
12:21AM -24.5427 132.4709 61° Northeast  Level FlightAware Approximate
12:22AM -24.5217 132.5125 61° Northeast  Level FlightAware Approximate
12:23AM -24.5006 132.5540 61° Northeast  Level FlightAware Approximate
12:24AM -24.4796 132.5955 61° Northeast  Level FlightAware Approximate
12:24AM -24.4523 132.6493 241° Southwest 1,800  Level Aus ATC (Calculated)
12:25AM -24.4585 132.6370 61° Northeast  Level FlightAware Approximate
12:26AM -24.4277 132.6977 61° Northeast  Level FlightAware Approximate
12:27AM -24.4066 132.7392 61° Northeast  Level FlightAware Approximate
12:28AM -24.3855 132.7806 61° Northeast  Level FlightAware Approximate
12:29AM -24.3644 132.8221 61° Northeast  Level FlightAware Approximate
12:30AM -24.3433 132.8635 61° Northeast  Level FlightAware Approximate
12:31AM -24.3221 132.9049 61° Northeast  Level FlightAware Approximate
12:32AM -24.3010 132.9463 61° Northeast  Level FlightAware Approximate
12:33AM -24.2798 132.9877 61° Northeast  Level FlightAware Approximate
12:34AM -24.2587 133.0290 61° Northeast  Level FlightAware Approximate
12:34AM -24.2522 133.0418 61° Northeast 1,800  Level Aus ATC (Calculated)
12:35AM -24.2375 133.0704 61° Northeast  Level FlightAware Approximate
12:36AM -24.2250 133.0948 61° Northeast  Level FlightAware Approximate
12:37AM -24.2038 133.1362 61° Northeast  Level FlightAware Approximate
12:38AM -24.1826 133.1775 61° Northeast  Level FlightAware Approximate
12:38AM -24.1693 133.2033 360° North 1,800  Level Aus ATC (Calculated)
12:38AM -24.1693 133.2033 61° Northeast 1,800  Level Aus ATC (Calculated)
12:40AM -24.1420 133.2563 61° Northeast  Level FlightAware Approximate
12:41AM -24.1208 133.2976 61° Northeast  Level FlightAware Approximate
12:42AM -24.0996 133.3389 61° Northeast  Level FlightAware Approximate
12:43AM -24.0783 133.3801 61° Northeast  Level FlightAware Approximate
12:44AM -24.0570 133.4214 61° Northeast  Level FlightAware Approximate
12:45AM -24.0357 133.4626 61° Northeast  Level FlightAware Approximate
12:46AM -24.0144 133.5037 62° Northeast  Level Estimated
12:46AM -23.9892 133.5526 242° Southwest 1,800  Level Aus ATC (Calculated)
12:47AM -23.9930 133.5449 62° Northeast  Level Estimated
12:47AM -23.9892 133.5526 360° North 1,800  Level Aus ATC (Calculated)
12:47AM -23.9892 133.5526 60° Northeast 1,800  Level Aus ATC (Calculated)
12:48AM -23.9653 133.5985 62° Northeast  Level Estimated
12:49AM -23.9646 133.5999 62° Northeast  Level Estimated
12:50AM -23.9432 133.6410 62° Northeast  Level Estimated
12:51AM -23.9217 133.6821 62° Northeast  Level Estimated
12:52AM -23.9003 133.7232 62° Northeast  Level Estimated
12:53AM -23.8789 133.7642 62° Northeast  Level Estimated
12:54AM -23.8574 133.8053 62° Northeast  Level Estimated
12:55AM -23.8359 133.8463 62° Northeast  Level Estimated
12:56AM -23.8144 133.8874 62° Northeast  Level Estimated
12:57AM -23.8083 133.9009 62° Northeast  Level FlightAware Approximate
12:58AM -23.8083 133.9009 62° Northeast  Level FlightAware Approximate
12:59AM -23.8067 133.9022 62° Northeast  Level Estimated
01:00AM -23.8083 133.9009 62° Northeast  Level FlightAware Approximate
01:01AM -23.8067 133.9022 62° Northeast  Level Estimated
01:02AM -23.8083 133.9009 62° Northeast  Level FlightAware Approximate
01:03AM -23.8067 133.9022 62° Northeast  Level Estimated
01:04AM -23.8083 133.9009 62° Northeast  Level FlightAware Approximate
01:05AM -23.8067 133.9022 62° Northeast  Level Estimated
01:06AM -23.8083 133.9009 62° Northeast  Level FlightAware Approximate
01:07AM -23.8067 133.9022 62° Northeast  Level Estimated
01:08AM -23.8083 133.9009 62° Northeast  Level FlightAware Approximate
01:09AM -23.8067 133.9022 62° Northeast  Level Estimated
01:10AM -23.8083 133.9009 62° Northeast  Level FlightAware Approximate
01:11AM -23.8067 133.9022 62° Northeast  Level Estimated
01:12AM -23.8083 133.9009 62° Northeast  Level FlightAware Approximate
01:13AM -23.8067 133.9022 62° Northeast  Level Estimated
01:14AM -23.8083 133.9009 62° Northeast  Level FlightAware Approximate